METAR Data
IDs: Format: Raw Decoded Include TAF

Data at: 1325 UTC 26 Feb 2021

METAR for:KGJT (Grand Junction Rgnl, CO, US)
Text:KGJT 261253Z 06004KT 10SM CLR M08/M14 A2998 RMK AO2 SLP168 T10781139
Temperature: -7.8°C ( 18°F)
Dewpoint:-13.9°C ( 7°F) [RH = 62%]
Pressure (altimeter):29.98 inches Hg (1015.3 mb) [Sea level pressure: 1016.8 mb]
Winds:from the ENE (60 degrees) at 5 MPH (4 knots; 2.1 m/s)
Visibility:10 or more sm (16+ km)
Ceiling:at least 12,000 feet AGL
Clouds:sky clear below 12,000 feet AGL